createdAt,value
2022-08-17T00:00:34.286Z,0.97
2022-08-17T00:03:17.880Z,1.25
2022-08-17T00:05:54.487Z,1.38
2022-08-17T00:08:25.451Z,1.20
2022-08-17T00:10:54.975Z,1.77
2022-08-17T00:13:43.377Z,2.00
2022-08-17T00:16:18.267Z,1.50
2022-08-17T00:19:02.109Z,1.50
2022-08-17T00:21:36.110Z,1.52
2022-08-17T00:24:23.210Z,1.85
2022-08-17T00:26:50.714Z,1.87
2022-08-17T00:29:19.894Z,1.80
2022-08-17T00:31:48.662Z,1.58
2022-08-17T00:34:16.650Z,1.60
2022-08-17T00:36:44.182Z,1.63
2022-08-17T00:39:12.430Z,1.70
2022-08-17T00:41:42.362Z,1.90
2022-08-17T00:44:12.459Z,1.65
2022-08-17T00:46:42.510Z,1.48
2022-08-17T00:49:11.985Z,1.45
2022-08-17T00:51:44.410Z,1.40
2022-08-17T00:54:25.643Z,1.65
2022-08-17T00:57:07.258Z,1.67
2022-08-17T00:59:39.589Z,1.52
2022-08-17T01:02:09.945Z,1.55
2022-08-17T01:04:39.063Z,1.50
2022-08-17T01:07:07.980Z,1.67
2022-08-17T01:09:35.980Z,2.08
2022-08-17T01:12:06.461Z,1.83
2022-08-17T01:14:37.114Z,2.10
2022-08-17T01:17:05.210Z,2.13
2022-08-17T01:19:36.294Z,1.65
2022-08-17T01:22:09.611Z,1.50
2022-08-17T01:24:50.559Z,1.40
2022-08-17T01:27:20.532Z,1.35
2022-08-17T01:29:52.502Z,1.30
2022-08-17T01:32:20.839Z,1.77
2022-08-17T01:34:50.492Z,1.33
2022-08-17T01:37:21.048Z,0.90
2022-08-17T01:39:56.450Z,1.67
2022-08-17T01:42:51.288Z,0.90
2022-08-17T01:45:23.373Z,1.00
2022-08-17T01:47:51.955Z,1.13
2022-08-17T01:50:30.619Z,0.80
2022-08-17T01:53:05.833Z,0.93
2022-08-17T01:55:51.836Z,1.10
2022-08-17T01:58:20.876Z,1.23
2022-08-17T02:00:59.917Z,1.50
2022-08-17T02:03:30.453Z,1.77
2022-08-17T02:05:58.006Z,2.08
2022-08-17T02:08:39.205Z,2.20
2022-08-17T02:11:17.561Z,2.80
2022-08-17T02:13:47.657Z,2.90
2022-08-17T02:16:25.594Z,2.28
2022-08-17T02:18:53.175Z,1.95
2022-08-17T02:21:20.676Z,2.03
2022-08-17T02:23:49.956Z,1.50
2022-08-17T02:26:25.559Z,1.48
2022-08-17T02:28:54.601Z,1.25
2022-08-17T02:31:22.147Z,1.45
2022-08-17T02:34:00.394Z,1.40
2022-08-17T02:36:35.793Z,1.38
2022-08-17T02:39:06.304Z,1.10
2022-08-17T02:41:34.518Z,1.35
2022-08-17T02:44:02.629Z,0.95
2022-08-17T02:46:31.341Z,1.30
2022-08-17T02:48:59.928Z,1.02
2022-08-17T02:51:27.645Z,1.25
2022-08-17T02:54:38.790Z,1.00
2022-08-17T02:56:43.139Z,1.38
2022-08-17T02:59:10.655Z,1.03
2022-08-17T03:01:38.312Z,0.85
2022-08-17T03:04:05.904Z,0.90
2022-08-17T03:06:33.638Z,0.90
2022-08-17T03:09:01.235Z,1.10
2022-08-17T03:11:28.786Z,1.30
2022-08-17T03:13:56.965Z,1.00
2022-08-17T03:16:24.426Z,1.00
2022-08-17T03:18:51.936Z,1.15
2022-08-17T03:21:19.400Z,1.00
2022-08-17T03:23:46.963Z,1.10
2022-08-17T03:26:22.105Z,1.02
2022-08-17T03:28:49.595Z,1.20
2022-08-17T03:31:18.617Z,1.00
2022-08-17T03:33:46.151Z,1.20
2022-08-17T03:36:13.784Z,1.20
2022-08-17T03:38:41.267Z,1.13
2022-08-17T03:41:09.392Z,1.48
2022-08-17T03:43:36.888Z,1.48
2022-08-17T03:46:28.582Z,0.73
2022-08-17T03:49:23.996Z,1.20
2022-08-17T03:52:10.903Z,1.08
2022-08-17T03:54:57.668Z,1.30
2022-08-17T03:57:26.439Z,0.90
2022-08-17T03:59:54.993Z,1.20
2022-08-17T04:02:24.533Z,1.10
2022-08-17T04:04:52.646Z,0.88
2022-08-17T04:07:21.984Z,1.10
2022-08-17T04:09:50.006Z,1.17
2022-08-17T04:12:20.415Z,1.10
2022-08-17T04:14:53.588Z,1.20
2022-08-17T04:17:24.807Z,1.20
2022-08-17T04:19:53.271Z,1.17
2022-08-17T04:22:32.869Z,0.73
2022-08-17T04:25:16.618Z,1.20
2022-08-17T04:27:44.233Z,1.00
2022-08-17T04:30:12.630Z,1.20
2022-08-17T04:33:08.984Z,1.13
2022-08-17T04:35:39.958Z,1.10
2022-08-17T04:38:09.876Z,1.30
2022-08-17T04:40:56.042Z,1.33
2022-08-17T04:43:26.114Z,1.00
2022-08-17T04:45:57.664Z,1.10
2022-08-17T04:48:36.932Z,0.93
2022-08-17T04:51:11.381Z,1.25
2022-08-17T04:53:44.674Z,1.27
2022-08-17T04:56:17.082Z,1.27
2022-08-17T04:58:49.979Z,1.10
2022-08-17T05:01:23.960Z,1.08
2022-08-17T05:03:54.045Z,1.88
2022-08-17T05:06:22.581Z,1.67
2022-08-17T05:08:50.157Z,1.83
2022-08-17T05:11:18.185Z,1.70
2022-08-17T05:13:45.894Z,1.90
2022-08-17T05:16:14.022Z,2.10
2022-08-17T05:18:41.575Z,1.70
2022-08-17T05:21:09.355Z,1.35
2022-08-17T05:23:42.730Z,1.33
2022-08-17T05:26:26.153Z,1.13
2022-08-17T05:29:02.595Z,1.40
2022-08-17T05:31:31.166Z,1.07
2022-08-17T05:33:59.588Z,1.42
2022-08-17T05:36:42.517Z,1.23
2022-08-17T05:39:16.439Z,1.00
2022-08-17T05:41:46.916Z,1.00
2022-08-17T05:44:14.815Z,1.50
2022-08-17T05:46:48.510Z,0.80
2022-08-17T05:49:18.244Z,1.05
2022-08-17T05:52:20.162Z,1.20
2022-08-17T05:54:58.817Z,0.90
2022-08-17T05:57:53.892Z,1.43
2022-08-17T06:00:32.156Z,1.02
2022-08-17T06:03:24.396Z,1.00
2022-08-17T06:06:11.358Z,1.17
2022-08-17T06:09:07.194Z,1.63
2022-08-17T06:11:43.638Z,1.30
2022-08-17T06:14:37.057Z,1.05
2022-08-17T06:17:10.612Z,0.80
2022-08-17T06:19:56.284Z,1.20
2022-08-17T06:22:33.854Z,1.58
2022-08-17T06:25:10.128Z,2.43
2022-08-17T06:27:43.283Z,1.48
2022-08-17T06:30:15.877Z,1.50
2022-08-17T06:32:48.083Z,1.63
2022-08-17T06:35:20.049Z,1.33
2022-08-17T06:37:59.658Z,1.50
2022-08-17T06:40:40.552Z,1.13
2022-08-17T06:43:48.969Z,1.15
2022-08-17T06:46:22.579Z,1.20
2022-08-17T06:49:01.964Z,1.40
2022-08-17T06:51:40.931Z,2.00
2022-08-17T06:54:23.757Z,1.67
2022-08-17T06:57:22.771Z,1.27
2022-08-17T06:59:56.780Z,1.10
2022-08-17T07:02:57.080Z,1.30
2022-08-17T07:05:44.988Z,1.53
2022-08-17T07:08:45.220Z,1.00
2022-08-17T07:11:20.931Z,0.82
2022-08-17T07:14:29.862Z,1.20
2022-08-17T07:17:01.655Z,2.85
2022-08-17T07:19:33.742Z,1.10
2022-08-17T07:22:28.144Z,1.27
2022-08-17T07:24:58.747Z,1.30
2022-08-17T07:27:53.991Z,0.80
2022-08-17T07:30:23.717Z,1.40
2022-08-17T07:33:01.195Z,1.20
2022-08-17T07:35:44.149Z,0.90
2022-08-17T07:38:25.330Z,1.10
2022-08-17T07:41:06.430Z,1.40
2022-08-17T07:43:39.814Z,1.27
2022-08-17T07:46:37.784Z,1.80
2022-08-17T07:49:10.803Z,1.60
2022-08-17T07:51:44.409Z,1.45
2022-08-17T07:54:19.773Z,1.23
2022-08-17T07:56:50.137Z,1.50
2022-08-17T07:59:23.110Z,1.73
2022-08-17T08:02:07.233Z,1.50
2022-08-17T08:05:01.651Z,1.23
2022-08-17T08:07:51.364Z,1.52
2022-08-17T08:10:33.815Z,1.80
2022-08-17T08:13:14.701Z,1.67
2022-08-17T08:15:53.463Z,1.67
2022-08-17T08:18:47.610Z,1.60
2022-08-17T08:21:22.462Z,1.90
2022-08-17T08:23:57.746Z,2.17
2022-08-17T08:26:37.743Z,1.90
2022-08-17T08:29:18.540Z,1.80
2022-08-17T08:32:08.051Z,1.98
2022-08-17T08:34:53.494Z,2.20
2022-08-17T08:37:51.008Z,2.00
2022-08-17T08:40:47.848Z,1.90
2022-08-17T08:43:40.626Z,2.03
2022-08-17T08:46:18.402Z,1.98
2022-08-17T08:49:39.294Z,2.08
2022-08-17T08:52:38.831Z,2.30
2022-08-17T08:55:24.977Z,1.93
2022-08-17T08:58:06.302Z,1.88
2022-08-17T09:00:39.428Z,2.38
2022-08-17T09:03:37.592Z,2.38
2022-08-17T09:06:39.197Z,2.30
2022-08-17T09:09:37.656Z,1.97
2022-08-17T09:12:05.296Z,2.30
2022-08-17T09:14:50.594Z,2.20
2022-08-17T09:17:36.050Z,1.90
2022-08-17T09:20:28.216Z,2.47
2022-08-17T09:23:08.218Z,2.27
2022-08-17T09:25:51.509Z,2.08
2022-08-17T09:28:30.841Z,1.90
2022-08-17T09:31:04.526Z,1.83
2022-08-17T09:33:37.370Z,2.28
2022-08-17T09:36:12.155Z,1.67
2022-08-17T09:38:42.538Z,1.70
2022-08-17T09:41:15.637Z,2.03
2022-08-17T09:43:54.853Z,1.90
2022-08-17T09:46:36.205Z,1.95
2022-08-17T09:49:23.183Z,1.70
2022-08-17T09:51:58.943Z,2.08
2022-08-17T09:54:41.771Z,1.70
2022-08-17T09:57:44.061Z,1.98
2022-08-17T10:00:27.771Z,2.42
2022-08-17T10:03:19.187Z,2.13
2022-08-17T10:05:57.032Z,2.08
2022-08-17T10:08:52.808Z,1.88
2022-08-17T10:11:54.768Z,2.10
2022-08-17T10:14:55.522Z,2.53
2022-08-17T10:17:41.990Z,2.43
2022-08-17T10:20:09.751Z,2.00
2022-08-17T10:23:06.097Z,2.13
2022-08-17T10:25:58.079Z,2.17
2022-08-17T10:28:32.384Z,1.63
2022-08-17T10:34:05.843Z,2.10
2022-08-17T10:36:55.779Z,1.90
2022-08-17T10:39:33.691Z,2.10
2022-08-17T10:42:16.438Z,1.88
2022-08-17T10:45:07.330Z,1.90
2022-08-17T10:48:08.969Z,1.90
2022-08-17T10:51:10.431Z,1.75
2022-08-17T10:53:42.370Z,1.65
2022-08-17T10:56:13.789Z,2.10
2022-08-17T10:58:57.414Z,1.80
2022-08-17T11:01:38.142Z,1.50
2022-08-17T11:04:38.413Z,1.90
2022-08-17T11:07:18.173Z,1.70
2022-08-17T11:10:16.035Z,2.03
2022-08-17T11:13:07.050Z,1.50
2022-08-17T11:15:52.785Z,1.80
2022-08-17T11:18:28.898Z,1.90
2022-08-17T11:21:05.498Z,1.88
2022-08-17T11:23:42.019Z,1.35
2022-08-17T11:26:26.344Z,1.50
2022-08-17T11:29:09.807Z,1.50
2022-08-17T11:31:44.651Z,1.65
2022-08-17T11:34:26.643Z,1.52
2022-08-17T11:37:21.778Z,1.80
2022-08-17T11:40:07.524Z,1.73
2022-08-17T11:43:13.598Z,1.60
2022-08-17T11:45:55.209Z,1.40
2022-08-17T11:49:14.084Z,1.70
2022-08-17T11:51:56.625Z,1.92
2022-08-17T11:54:35.972Z,1.77
2022-08-17T11:57:26.195Z,1.60
2022-08-17T12:00:01.480Z,1.50
2022-08-17T12:02:35.501Z,1.40
2022-08-17T12:05:14.605Z,1.60
2022-08-17T12:07:49.713Z,1.70
2022-08-17T12:10:21.853Z,1.40
2022-08-17T12:12:53.494Z,1.60
2022-08-17T12:15:32.617Z,1.58
2022-08-17T12:18:00.236Z,1.60
2022-08-17T12:20:35.554Z,1.40
2022-08-17T12:23:33.840Z,1.63
2022-08-17T12:26:10.071Z,1.58
2022-08-17T12:28:44.288Z,1.83
2022-08-17T12:31:22.235Z,1.38
2022-08-17T12:33:52.019Z,1.90
2022-08-17T12:36:24.956Z,1.50
2022-08-17T12:39:12.969Z,1.83
2022-08-17T12:41:47.200Z,1.38
2022-08-17T12:44:20.343Z,1.80
2022-08-17T12:47:04.868Z,1.50
2022-08-17T12:49:35.811Z,1.25
2022-08-17T12:52:08.092Z,1.48
2022-08-17T12:54:51.436Z,1.30
2022-08-17T12:57:20.920Z,1.88
2022-08-17T12:59:53.091Z,1.77
2022-08-17T13:02:39.033Z,1.45
2022-08-17T13:05:09.158Z,2.03
2022-08-17T13:07:42.738Z,1.48
2022-08-17T13:10:21.948Z,1.40
2022-08-17T13:12:51.257Z,1.47
2022-08-17T13:15:53.523Z,1.42
2022-08-17T13:18:42.666Z,1.33
2022-08-17T13:21:19.232Z,1.33
2022-08-17T13:24:10.873Z,1.55
2022-08-17T13:26:42.783Z,2.07
2022-08-17T13:29:28.944Z,1.40
2022-08-17T13:32:16.358Z,1.45
2022-08-17T13:35:14.846Z,1.70
2022-08-17T13:38:01.988Z,1.42
2022-08-17T13:40:52.214Z,1.10
2022-08-17T13:43:39.635Z,1.42
2022-08-17T13:46:33.882Z,1.08
2022-08-17T13:49:10.061Z,1.30
2022-08-17T13:51:45.784Z,1.48
2022-08-17T13:54:29.892Z,1.57
2022-08-17T13:57:26.066Z,1.48
2022-08-17T14:00:10.400Z,1.38
2022-08-17T14:02:38.178Z,1.40
2022-08-17T14:05:06.189Z,1.52
2022-08-17T14:07:39.958Z,1.60
2022-08-17T14:10:15.183Z,1.38
2022-08-17T14:12:44.306Z,1.58
2022-08-17T14:15:14.720Z,1.20
2022-08-17T14:17:42.321Z,1.30
2022-08-17T14:20:12.376Z,1.20
2022-08-17T14:22:45.450Z,1.65
2022-08-17T14:25:15.865Z,1.10
2022-08-17T14:27:52.595Z,1.30
2022-08-17T14:30:24.790Z,1.48
2022-08-17T14:32:53.250Z,1.33
2022-08-17T14:35:23.332Z,1.58
2022-08-17T14:37:52.324Z,1.67
2022-08-17T14:40:25.030Z,1.45
2022-08-17T14:42:55.436Z,1.83
2022-08-17T14:45:29.980Z,1.53
2022-08-17T14:48:04.439Z,2.13
2022-08-17T14:50:35.519Z,1.70
2022-08-17T14:53:04.806Z,1.65
2022-08-17T14:55:32.918Z,1.60
2022-08-17T14:58:02.296Z,1.60
2022-08-17T15:00:29.805Z,1.88
2022-08-17T15:03:00.271Z,1.80
2022-08-17T15:05:31.860Z,1.48
2022-08-17T15:08:01.401Z,1.85
2022-08-17T15:10:30.484Z,1.27
2022-08-17T15:12:58.130Z,1.63
2022-08-17T15:15:27.152Z,1.63
2022-08-17T15:17:54.874Z,1.70
2022-08-17T15:20:28.261Z,1.77
2022-08-17T15:22:59.243Z,1.33
2022-08-17T15:25:29.594Z,1.70
2022-08-17T15:27:57.808Z,2.40
2022-08-17T15:30:26.819Z,2.03
2022-08-17T15:32:55.742Z,1.65
2022-08-17T15:35:28.182Z,1.30
2022-08-17T15:38:11.153Z,1.38
2022-08-17T15:40:47.037Z,1.35
2022-08-17T15:43:27.823Z,1.55
2022-08-17T15:46:01.061Z,1.95
2022-08-17T15:48:41.693Z,1.47
2022-08-17T15:51:15.275Z,1.65
2022-08-17T15:53:46.436Z,1.48
2022-08-17T15:56:15.309Z,1.50
2022-08-17T15:58:44.491Z,1.70
2022-08-17T16:01:16.983Z,1.40
2022-08-17T16:04:04.121Z,1.45
2022-08-17T16:06:34.752Z,1.42
2022-08-17T16:09:02.258Z,1.10
2022-08-17T16:11:30.215Z,1.70
2022-08-17T16:13:57.684Z,1.60
2022-08-17T16:16:26.316Z,1.67
2022-08-17T16:18:58.377Z,1.60
2022-08-17T16:21:27.377Z,1.30
2022-08-17T16:24:05.641Z,1.58
2022-08-17T16:26:40.718Z,1.40
2022-08-17T16:29:08.558Z,1.50
2022-08-17T16:31:37.921Z,1.65
2022-08-17T16:34:17.876Z,1.67
2022-08-17T16:36:51.867Z,1.30
2022-08-17T16:39:26.600Z,1.60
2022-08-17T16:41:54.439Z,1.60
2022-08-17T16:44:22.444Z,1.67
2022-08-17T16:46:50.669Z,1.90
2022-08-17T16:49:36.238Z,1.55
2022-08-17T16:52:07.628Z,1.87
2022-08-17T16:54:37.431Z,1.30
2022-08-17T16:57:05.532Z,1.58
2022-08-17T16:59:41.018Z,1.40
2022-08-17T17:02:14.876Z,1.40
2022-08-17T17:04:57.892Z,1.33
2022-08-17T17:07:37.506Z,1.67
2022-08-17T17:10:11.834Z,1.48
2022-08-17T17:13:02.898Z,1.55
2022-08-17T17:15:39.881Z,1.70
2022-08-17T17:18:15.589Z,1.80
2022-08-17T17:21:03.421Z,2.35
2022-08-17T17:23:40.655Z,1.80
2022-08-17T17:26:11.253Z,2.28
2022-08-17T17:28:49.007Z,1.40
2022-08-17T17:31:21.295Z,2.17
2022-08-17T17:34:11.033Z,2.13
2022-08-17T17:36:45.960Z,1.42
2022-08-17T17:39:36.807Z,1.65
2022-08-17T17:42:10.027Z,1.77
2022-08-17T17:45:09.704Z,1.50
2022-08-17T17:47:37.355Z,1.50
2022-08-17T17:50:07.327Z,1.83
2022-08-17T17:52:48.461Z,1.90
2022-08-17T17:55:33.889Z,2.67
2022-08-17T17:58:27.559Z,3.30
2022-08-17T18:01:31.872Z,2.70
2022-08-17T18:04:26.599Z,2.03
2022-08-17T18:07:13.777Z,2.72
2022-08-17T18:10:29.310Z,2.13
2022-08-17T18:13:26.694Z,2.10
2022-08-17T18:15:56.574Z,1.50
2022-08-17T18:18:38.346Z,2.20
2022-08-17T18:21:16.882Z,2.10
2022-08-17T18:23:52.330Z,2.30
2022-08-17T18:26:42.071Z,1.67
2022-08-17T18:29:31.739Z,1.60
2022-08-17T18:32:32.834Z,1.60
2022-08-17T18:35:28.221Z,1.70
2022-08-17T18:38:33.921Z,1.75
2022-08-17T18:41:20.939Z,2.37
2022-08-17T18:44:05.163Z,2.38
2022-08-17T18:46:37.815Z,2.35
2022-08-17T18:49:26.937Z,2.05
2022-08-17T18:52:31.709Z,1.92
2022-08-17T18:55:15.819Z,1.93
2022-08-17T18:57:47.119Z,2.00
2022-08-17T19:00:20.379Z,1.45
2022-08-17T19:02:57.636Z,1.70
2022-08-17T19:05:31.217Z,2.00
2022-08-17T19:08:33.362Z,2.07
2022-08-17T19:11:11.125Z,2.03
2022-08-17T19:13:53.377Z,1.77
2022-08-17T19:16:25.502Z,1.80
2022-08-17T19:18:58.239Z,1.90
2022-08-17T19:21:37.498Z,1.87
2022-08-17T19:24:24.933Z,1.95
2022-08-17T19:26:57.604Z,2.40
2022-08-17T19:29:34.187Z,2.20
2022-08-17T19:32:02.272Z,2.05
2022-08-17T19:34:34.471Z,2.00
2022-08-17T19:37:07.770Z,1.95
2022-08-17T19:39:51.177Z,2.00
2022-08-17T19:42:39.555Z,2.20
2022-08-17T19:45:19.801Z,2.22
2022-08-17T19:48:16.214Z,1.90
2022-08-17T19:50:48.563Z,2.08
2022-08-17T19:53:18.857Z,2.13
2022-08-17T19:55:54.360Z,2.60
2022-08-17T19:58:27.339Z,2.40
2022-08-17T20:00:55.514Z,2.60
2022-08-17T20:03:32.739Z,2.33
2022-08-17T20:06:13.076Z,1.90
2022-08-17T20:08:58.427Z,2.65
2022-08-17T20:11:44.927Z,2.60
2022-08-17T20:14:16.491Z,3.03
2022-08-17T20:16:44.205Z,3.03
2022-08-17T20:19:33.049Z,2.70
2022-08-17T20:22:15.757Z,3.45
2022-08-17T20:25:00.941Z,3.13
2022-08-17T20:27:36.606Z,3.50
2022-08-17T20:30:10.551Z,3.20
2022-08-17T20:32:52.549Z,4.30
2022-08-17T20:35:26.054Z,4.63
2022-08-17T20:37:55.653Z,4.30
2022-08-17T20:40:27.588Z,5.17
2022-08-17T20:42:56.450Z,5.43
2022-08-17T20:45:24.579Z,4.22
2022-08-17T20:48:36.982Z,5.20
2022-08-17T20:51:22.739Z,3.70
2022-08-17T20:53:50.415Z,3.70
2022-08-17T20:56:43.413Z,3.08
2022-08-17T20:59:26.126Z,3.40
2022-08-17T21:02:08.063Z,3.88
2022-08-17T21:05:03.955Z,3.88
2022-08-17T21:07:43.483Z,3.60
2022-08-17T21:10:24.264Z,3.40
2022-08-17T21:12:57.975Z,2.65
2022-08-17T21:15:42.014Z,2.85
2022-08-17T21:18:28.845Z,3.13
2022-08-17T21:21:21.649Z,2.50
2022-08-17T21:24:29.064Z,3.05
2022-08-17T21:27:17.753Z,2.80
2022-08-17T21:30:13.009Z,2.13
2022-08-17T21:32:42.312Z,2.03
2022-08-17T21:35:30.658Z,2.33
2022-08-17T21:38:04.629Z,2.03
2022-08-17T21:40:34.236Z,2.88
2022-08-17T21:43:17.313Z,3.13
2022-08-17T21:45:56.234Z,3.13
2022-08-17T21:48:27.687Z,3.47
2022-08-17T21:51:10.598Z,3.20
2022-08-17T21:53:43.932Z,3.08
2022-08-17T21:56:13.536Z,2.70
2022-08-17T21:58:48.258Z,2.58
2022-08-17T22:01:24.066Z,2.90
2022-08-17T22:03:59.279Z,2.47
2022-08-17T22:06:56.643Z,2.42
2022-08-17T22:09:31.933Z,1.73
2022-08-17T22:12:09.380Z,1.88
2022-08-17T22:14:52.181Z,2.67
2022-08-17T22:17:38.991Z,2.30
2022-08-17T22:20:14.576Z,2.13
2022-08-17T22:23:20.233Z,2.00
2022-08-17T22:26:03.993Z,2.55
2022-08-17T22:28:41.811Z,1.93
2022-08-17T22:31:14.589Z,2.30
2022-08-17T22:33:44.316Z,2.22
2022-08-17T22:36:25.858Z,2.40
2022-08-17T22:39:01.162Z,2.22
2022-08-17T22:41:36.316Z,2.40
2022-08-17T22:44:21.348Z,1.85
2022-08-17T22:47:14.449Z,1.98
2022-08-17T22:49:53.458Z,2.20
2022-08-17T22:52:32.512Z,2.45
2022-08-17T22:55:39.365Z,2.20
2022-08-17T22:58:30.686Z,2.10
2022-08-17T23:01:25.945Z,2.30
2022-08-17T23:04:22.132Z,2.20
2022-08-17T23:06:49.612Z,2.10
2022-08-17T23:09:17.106Z,3.00
2022-08-17T23:11:49.380Z,2.20
2022-08-17T23:14:20.498Z,2.30
2022-08-17T23:16:50.403Z,2.00
2022-08-17T23:19:20.856Z,2.47
2022-08-17T23:21:50.731Z,2.30
2022-08-17T23:24:32.837Z,2.13
2022-08-17T23:27:00.296Z,2.00
2022-08-17T23:29:29.700Z,2.58
2022-08-17T23:32:00.184Z,2.30
2022-08-17T23:34:28.895Z,2.23
2022-08-17T23:36:56.835Z,2.30
2022-08-17T23:39:27.634Z,1.95
2022-08-17T23:41:58.507Z,1.75
2022-08-17T23:44:26.638Z,1.92
2022-08-17T23:46:55.212Z,1.90
2022-08-17T23:49:23.721Z,2.75
2022-08-17T23:51:53.899Z,1.90
2022-08-17T23:54:21.329Z,1.70
2022-08-17T23:56:48.854Z,1.83
2022-08-17T23:59:21.569Z,1.90
